sensor_id;sensor_type;location;lat;lon;timestamp;temperature;humidity
63445;DHT22;49573;47.682;9.170;2024-02-28T00:02:16;8.90;74.90
63445;DHT22;49573;47.682;9.170;2024-02-28T00:05:02;8.90;75.10
63445;DHT22;49573;47.682;9.170;2024-02-28T00:07:48;8.90;75.00
63445;DHT22;49573;47.682;9.170;2024-02-28T00:10:34;8.90;75.10
63445;DHT22;49573;47.682;9.170;2024-02-28T00:13:21;8.90;74.80
63445;DHT22;49573;47.682;9.170;2024-02-28T00:16:08;8.90;74.80
63445;DHT22;49573;47.682;9.170;2024-02-28T00:18:55;8.90;74.90
63445;DHT22;49573;47.682;9.170;2024-02-28T00:21:41;8.90;75.10
63445;DHT22;49573;47.682;9.170;2024-02-28T00:24:28;8.90;74.80
63445;DHT22;49573;47.682;9.170;2024-02-28T00:27:15;8.90;74.90
63445;DHT22;49573;47.682;9.170;2024-02-28T00:30:01;8.80;75.00
63445;DHT22;49573;47.682;9.170;2024-02-28T00:32:47;8.80;75.00
63445;DHT22;49573;47.682;9.170;2024-02-28T00:35:34;8.80;74.80
63445;DHT22;49573;47.682;9.170;2024-02-28T00:38:20;8.80;74.90
63445;DHT22;49573;47.682;9.170;2024-02-28T00:41:07;8.90;74.80
63445;DHT22;49573;47.682;9.170;2024-02-28T00:43:53;8.80;75.20
63445;DHT22;49573;47.682;9.170;2024-02-28T00:46:39;8.80;75.00
63445;DHT22;49573;47.682;9.170;2024-02-28T00:49:25;8.80;74.90
63445;DHT22;49573;47.682;9.170;2024-02-28T00:52:12;8.90;74.60
63445;DHT22;49573;47.682;9.170;2024-02-28T00:54:58;8.80;74.90
63445;DHT22;49573;47.682;9.170;2024-02-28T00:57:45;8.80;74.90
63445;DHT22;49573;47.682;9.170;2024-02-28T01:00:31;8.80;75.00
63445;DHT22;49573;47.682;9.170;2024-02-28T01:03:17;8.80;75.00
63445;DHT22;49573;47.682;9.170;2024-02-28T01:06:04;8.80;74.90
63445;DHT22;49573;47.682;9.170;2024-02-28T01:08:52;8.80;75.00
63445;DHT22;49573;47.682;9.170;2024-02-28T01:11:38;8.80;74.90
63445;DHT22;49573;47.682;9.170;2024-02-28T01:14:24;8.80;74.70
63445;DHT22;49573;47.682;9.170;2024-02-28T01:17:10;8.80;74.50
63445;DHT22;49573;47.682;9.170;2024-02-28T01:19:56;8.80;74.60
63445;DHT22;49573;47.682;9.170;2024-02-28T01:22:42;8.80;74.70
63445;DHT22;49573;47.682;9.170;2024-02-28T01:25:30;8.80;74.40
63445;DHT22;49573;47.682;9.170;2024-02-28T01:28:16;8.70;75.00
63445;DHT22;49573;47.682;9.170;2024-02-28T01:31:02;8.70;75.40
63445;DHT22;49573;47.682;9.170;2024-02-28T01:33:48;8.70;75.50
63445;DHT22;49573;47.682;9.170;2024-02-28T01:36:34;8.70;75.10
63445;DHT22;49573;47.682;9.170;2024-02-28T01:39:20;8.80;75.00
63445;DHT22;49573;47.682;9.170;2024-02-28T01:42:08;8.70;74.90
63445;DHT22;49573;47.682;9.170;2024-02-28T01:44:55;8.70;74.90
63445;DHT22;49573;47.682;9.170;2024-02-28T01:47:41;8.80;74.50
63445;DHT22;49573;47.682;9.170;2024-02-28T01:50:28;8.70;74.70
63445;DHT22;49573;47.682;9.170;2024-02-28T01:53:14;8.70;75.00
63445;DHT22;49573;47.682;9.170;2024-02-28T01:56:01;8.70;74.80
63445;DHT22;49573;47.682;9.170;2024-02-28T01:58:49;8.70;74.50
63445;DHT22;49573;47.682;9.170;2024-02-28T02:01:36;8.70;74.30
63445;DHT22;49573;47.682;9.170;2024-02-28T02:04:22;8.70;74.40
63445;DHT22;49573;47.682;9.170;2024-02-28T02:07:08;8.70;74.60
63445;DHT22;49573;47.682;9.170;2024-02-28T02:09:54;8.70;74.50
63445;DHT22;49573;47.682;9.170;2024-02-28T02:12:40;8.60;74.70
63445;DHT22;49573;47.682;9.170;2024-02-28T02:15:28;8.70;74.40
63445;DHT22;49573;47.682;9.170;2024-02-28T02:18:16;8.60;74.60
63445;DHT22;49573;47.682;9.170;2024-02-28T02:21:04;8.60;74.60
63445;DHT22;49573;47.682;9.170;2024-02-28T02:23:52;8.50;74.70
63445;DHT22;49573;47.682;9.170;2024-02-28T02:26:38;8.60;74.40
63445;DHT22;49573;47.682;9.170;2024-02-28T02:29:24;8.60;74.40
63445;DHT22;49573;47.682;9.170;2024-02-28T02:32:10;8.60;74.40
63445;DHT22;49573;47.682;9.170;2024-02-28T02:34:56;8.50;74.70
63445;DHT22;49573;47.682;9.170;2024-02-28T02:37:43;8.60;74.20
63445;DHT22;49573;47.682;9.170;2024-02-28T02:40:32;8.50;74.30
63445;DHT22;49573;47.682;9.170;2024-02-28T02:43:18;8.60;74.20
63445;DHT22;49573;47.682;9.170;2024-02-28T02:46:04;8.50;74.50
63445;DHT22;49573;47.682;9.170;2024-02-28T02:48:50;8.60;74.10
63445;DHT22;49573;47.682;9.170;2024-02-28T02:51:38;8.50;74.10
63445;DHT22;49573;47.682;9.170;2024-02-28T02:54:24;8.50;74.40
63445;DHT22;49573;47.682;9.170;2024-02-28T02:57:12;8.50;74.40
63445;DHT22;49573;47.682;9.170;2024-02-28T02:59:58;8.50;74.10
63445;DHT22;49573;47.682;9.170;2024-02-28T03:02:44;8.50;74.10
63445;DHT22;49573;47.682;9.170;2024-02-28T03:05:30;8.40;74.20
63445;DHT22;49573;47.682;9.170;2024-02-28T03:08:16;8.40;74.60
63445;DHT22;49573;47.682;9.170;2024-02-28T03:11:02;8.40;74.20
63445;DHT22;49573;47.682;9.170;2024-02-28T03:13:51;8.40;74.30
63445;DHT22;49573;47.682;9.170;2024-02-28T03:16:41;8.40;74.20
63445;DHT22;49573;47.682;9.170;2024-02-28T03:19:27;8.50;74.10
63445;DHT22;49573;47.682;9.170;2024-02-28T03:22:13;8.50;73.70
63445;DHT22;49573;47.682;9.170;2024-02-28T03:24:59;8.50;73.60
63445;DHT22;49573;47.682;9.170;2024-02-28T03:27:45;8.40;73.70
63445;DHT22;49573;47.682;9.170;2024-02-28T03:30:33;8.30;73.90
63445;DHT22;49573;47.682;9.170;2024-02-28T03:33:19;8.40;73.80
63445;DHT22;49573;47.682;9.170;2024-02-28T03:36:05;8.40;73.40
63445;DHT22;49573;47.682;9.170;2024-02-28T03:38:51;8.40;73.20
63445;DHT22;49573;47.682;9.170;2024-02-28T03:41:37;8.40;73.30
63445;DHT22;49573;47.682;9.170;2024-02-28T03:44:23;8.40;73.30
63445;DHT22;49573;47.682;9.170;2024-02-28T03:47:12;8.30;73.00
63445;DHT22;49573;47.682;9.170;2024-02-28T03:49:58;8.30;73.10
63445;DHT22;49573;47.682;9.170;2024-02-28T03:52:45;8.30;73.00
63445;DHT22;49573;47.682;9.170;2024-02-28T03:55:31;8.30;73.00
63445;DHT22;49573;47.682;9.170;2024-02-28T03:58:17;8.30;73.10
63445;DHT22;49573;47.682;9.170;2024-02-28T04:01:03;8.30;72.80
63445;DHT22;49573;47.682;9.170;2024-02-28T04:03:51;8.30;72.90
63445;DHT22;49573;47.682;9.170;2024-02-28T04:06:37;8.30;73.00
63445;DHT22;49573;47.682;9.170;2024-02-28T04:09:23;8.30;72.60
63445;DHT22;49573;47.682;9.170;2024-02-28T04:12:09;8.30;72.70
63445;DHT22;49573;47.682;9.170;2024-02-28T04:14:56;8.20;72.70
63445;DHT22;49573;47.682;9.170;2024-02-28T04:17:42;8.20;73.10
63445;DHT22;49573;47.682;9.170;2024-02-28T04:20:30;8.20;73.10
63445;DHT22;49573;47.682;9.170;2024-02-28T04:23:16;8.20;72.90
63445;DHT22;49573;47.682;9.170;2024-02-28T04:26:03;8.20;73.00
63445;DHT22;49573;47.682;9.170;2024-02-28T04:28:49;8.20;73.00
63445;DHT22;49573;47.682;9.170;2024-02-28T04:31:38;8.20;73.00
63445;DHT22;49573;47.682;9.170;2024-02-28T04:34:24;8.20;73.00
63445;DHT22;49573;47.682;9.170;2024-02-28T04:37:11;8.20;73.00
63445;DHT22;49573;47.682;9.170;2024-02-28T04:39:57;8.30;73.00
63445;DHT22;49573;47.682;9.170;2024-02-28T04:42:43;8.20;72.80
63445;DHT22;49573;47.682;9.170;2024-02-28T04:45:29;8.20;72.80
63445;DHT22;49573;47.682;9.170;2024-02-28T04:48:15;8.20;73.00
63445;DHT22;49573;47.682;9.170;2024-02-28T04:51:01;8.10;73.10
63445;DHT22;49573;47.682;9.170;2024-02-28T04:53:49;8.20;73.10
63445;DHT22;49573;47.682;9.170;2024-02-28T04:56:39;8.20;72.90
63445;DHT22;49573;47.682;9.170;2024-02-28T04:59:25;8.20;72.70
63445;DHT22;49573;47.682;9.170;2024-02-28T05:02:11;8.20;72.70
63445;DHT22;49573;47.682;9.170;2024-02-28T05:04:58;8.20;72.90
63445;DHT22;49573;47.682;9.170;2024-02-28T05:07:44;8.20;72.50
63445;DHT22;49573;47.682;9.170;2024-02-28T05:10:31;8.10;72.40
63445;DHT22;49573;47.682;9.170;2024-02-28T05:13:20;8.10;72.70
63445;DHT22;49573;47.682;9.170;2024-02-28T05:16:12;8.10;73.10
63445;DHT22;49573;47.682;9.170;2024-02-28T05:18:58;8.00;72.90
63445;DHT22;49573;47.682;9.170;2024-02-28T05:21:45;8.00;73.10
63445;DHT22;49573;47.682;9.170;2024-02-28T05:24:31;8.10;73.10
63445;DHT22;49573;47.682;9.170;2024-02-28T05:27:18;8.00;73.00
63445;DHT22;49573;47.682;9.170;2024-02-28T05:30:05;8.00;72.80
63445;DHT22;49573;47.682;9.170;2024-02-28T05:32:51;8.00;72.50
63445;DHT22;49573;47.682;9.170;2024-02-28T05:35:37;7.90;72.90
63445;DHT22;49573;47.682;9.170;2024-02-28T05:38:24;7.90;72.40
63445;DHT22;49573;47.682;9.170;2024-02-28T05:41:10;7.80;72.00
63445;DHT22;49573;47.682;9.170;2024-02-28T05:43:57;7.80;72.00
63445;DHT22;49573;47.682;9.170;2024-02-28T05:46:43;7.80;72.00
63445;DHT22;49573;47.682;9.170;2024-02-28T05:49:30;7.80;72.00
63445;DHT22;49573;47.682;9.170;2024-02-28T05:52:16;7.80;71.40
63445;DHT22;49573;47.682;9.170;2024-02-28T05:55:02;7.70;71.60
63445;DHT22;49573;47.682;9.170;2024-02-28T05:57:48;7.70;71.60
63445;DHT22;49573;47.682;9.170;2024-02-28T06:00:36;7.70;71.50
63445;DHT22;49573;47.682;9.170;2024-02-28T06:03:22;7.70;71.30
63445;DHT22;49573;47.682;9.170;2024-02-28T06:06:08;7.70;71.30
63445;DHT22;49573;47.682;9.170;2024-02-28T06:08:54;7.70;71.50
63445;DHT22;49573;47.682;9.170;2024-02-28T06:11:40;7.60;71.60
63445;DHT22;49573;47.682;9.170;2024-02-28T06:14:26;7.60;72.00
63445;DHT22;49573;47.682;9.170;2024-02-28T06:17:13;7.60;71.80
63445;DHT22;49573;47.682;9.170;2024-02-28T06:19:59;7.60;71.60
63445;DHT22;49573;47.682;9.170;2024-02-28T06:22:45;7.60;71.80
63445;DHT22;49573;47.682;9.170;2024-02-28T06:25:31;7.60;71.40
63445;DHT22;49573;47.682;9.170;2024-02-28T06:28:19;7.50;71.60
63445;DHT22;49573;47.682;9.170;2024-02-28T06:31:11;7.60;72.00
63445;DHT22;49573;47.682;9.170;2024-02-28T06:33:59;7.50;72.10
63445;DHT22;49573;47.682;9.170;2024-02-28T06:36:45;7.50;72.00
63445;DHT22;49573;47.682;9.170;2024-02-28T06:39:31;7.50;71.80
63445;DHT22;49573;47.682;9.170;2024-02-28T06:42:17;7.50;72.10
63445;DHT22;49573;47.682;9.170;2024-02-28T06:45:03;7.50;72.00
63445;DHT22;49573;47.682;9.170;2024-02-28T06:47:50;7.50;72.10
63445;DHT22;49573;47.682;9.170;2024-02-28T06:50:38;7.40;72.20
63445;DHT22;49573;47.682;9.170;2024-02-28T06:53:24;7.50;71.80
63445;DHT22;49573;47.682;9.170;2024-02-28T06:56:10;7.50;72.10
63445;DHT22;49573;47.682;9.170;2024-02-28T06:58:56;7.50;72.20
63445;DHT22;49573;47.682;9.170;2024-02-28T07:01:42;7.40;72.50
63445;DHT22;49573;47.682;9.170;2024-02-28T07:04:28;7.50;72.30
63445;DHT22;49573;47.682;9.170;2024-02-28T07:07:16;7.40;72.40
63445;DHT22;49573;47.682;9.170;2024-02-28T07:10:03;7.40;72.30
63445;DHT22;49573;47.682;9.170;2024-02-28T07:12:50;7.50;72.20
63445;DHT22;49573;47.682;9.170;2024-02-28T07:15:36;7.50;72.60
63445;DHT22;49573;47.682;9.170;2024-02-28T07:18:22;7.40;72.50
63445;DHT22;49573;47.682;9.170;2024-02-28T07:21:11;7.40;72.80
63445;DHT22;49573;47.682;9.170;2024-02-28T07:23:58;7.40;72.40
63445;DHT22;49573;47.682;9.170;2024-02-28T07:26:46;7.40;72.60
63445;DHT22;49573;47.682;9.170;2024-02-28T07:29:32;7.50;72.80
63445;DHT22;49573;47.682;9.170;2024-02-28T07:32:18;7.50;72.70
63445;DHT22;49573;47.682;9.170;2024-02-28T07:35:05;7.50;72.50
63445;DHT22;49573;47.682;9.170;2024-02-28T07:37:52;7.40;72.80
63445;DHT22;49573;47.682;9.170;2024-02-28T07:40:39;7.50;73.10
63445;DHT22;49573;47.682;9.170;2024-02-28T07:43:25;7.50;72.60
63445;DHT22;49573;47.682;9.170;2024-02-28T07:46:11;7.50;72.80
63445;DHT22;49573;47.682;9.170;2024-02-28T07:48:58;7.50;72.90
63445;DHT22;49573;47.682;9.170;2024-02-28T07:51:44;7.50;72.80
63445;DHT22;49573;47.682;9.170;2024-02-28T07:54:30;7.50;72.90
63445;DHT22;49573;47.682;9.170;2024-02-28T07:57:17;7.50;72.90
63445;DHT22;49573;47.682;9.170;2024-02-28T08:00:03;7.60;72.90
63445;DHT22;49573;47.682;9.170;2024-02-28T08:02:50;7.60;73.20
63445;DHT22;49573;47.682;9.170;2024-02-28T08:05:36;7.60;73.70
63445;DHT22;49573;47.682;9.170;2024-02-28T08:08:24;7.60;72.60
63445;DHT22;49573;47.682;9.170;2024-02-28T08:11:11;7.70;72.90
63445;DHT22;49573;47.682;9.170;2024-02-28T08:13:58;7.70;72.80
63445;DHT22;49573;47.682;9.170;2024-02-28T08:16:44;7.70;72.90
63445;DHT22;49573;47.682;9.170;2024-02-28T08:19:30;7.70;73.30
63445;DHT22;49573;47.682;9.170;2024-02-28T08:22:16;7.80;73.20
63445;DHT22;49573;47.682;9.170;2024-02-28T08:25:02;7.80;73.00
63445;DHT22;49573;47.682;9.170;2024-02-28T08:27:48;7.80;73.00
63445;DHT22;49573;47.682;9.170;2024-02-28T08:30:36;7.80;73.30
63445;DHT22;49573;47.682;9.170;2024-02-28T08:33:22;7.80;73.00
63445;DHT22;49573;47.682;9.170;2024-02-28T08:36:08;7.80;73.00
63445;DHT22;49573;47.682;9.170;2024-02-28T08:38:54;7.80;72.80
63445;DHT22;49573;47.682;9.170;2024-02-28T08:41:40;7.80;72.90
63445;DHT22;49573;47.682;9.170;2024-02-28T08:44:26;7.80;72.50
63445;DHT22;49573;47.682;9.170;2024-02-28T08:47:13;7.90;72.80
63445;DHT22;49573;47.682;9.170;2024-02-28T08:50:00;8.00;72.90
63445;DHT22;49573;47.682;9.170;2024-02-28T08:52:46;8.00;73.00
63445;DHT22;49573;47.682;9.170;2024-02-28T08:55:32;8.00;72.70
63445;DHT22;49573;47.682;9.170;2024-02-28T08:58:18;8.00;72.80
63445;DHT22;49573;47.682;9.170;2024-02-28T09:01:04;8.00;72.80
63445;DHT22;49573;47.682;9.170;2024-02-28T09:03:51;8.00;72.70
63445;DHT22;49573;47.682;9.170;2024-02-28T09:06:37;8.00;72.50
63445;DHT22;49573;47.682;9.170;2024-02-28T09:09:23;8.00;73.00
63445;DHT22;49573;47.682;9.170;2024-02-28T09:12:09;8.20;73.00
63445;DHT22;49573;47.682;9.170;2024-02-28T09:14:55;8.20;72.90
63445;DHT22;49573;47.682;9.170;2024-02-28T09:17:43;8.20;72.70
63445;DHT22;49573;47.682;9.170;2024-02-28T09:20:31;8.30;72.40
63445;DHT22;49573;47.682;9.170;2024-02-28T09:23:17;8.30;72.50
63445;DHT22;49573;47.682;9.170;2024-02-28T09:26:03;8.40;72.20
63445;DHT22;49573;47.682;9.170;2024-02-28T09:28:49;8.40;72.00
63445;DHT22;49573;47.682;9.170;2024-02-28T09:31:35;8.50;71.40
63445;DHT22;49573;47.682;9.170;2024-02-28T09:34:21;8.50;71.10
63445;DHT22;49573;47.682;9.170;2024-02-28T09:37:09;8.50;71.70
63445;DHT22;49573;47.682;9.170;2024-02-28T09:39:55;8.70;71.50
63445;DHT22;49573;47.682;9.170;2024-02-28T09:42:41;8.80;71.50
63445;DHT22;49573;47.682;9.170;2024-02-28T09:45:27;8.70;70.90
63445;DHT22;49573;47.682;9.170;2024-02-28T09:48:16;8.80;70.60
63445;DHT22;49573;47.682;9.170;2024-02-28T09:51:04;8.70;70.30
63445;DHT22;49573;47.682;9.170;2024-02-28T09:53:52;8.60;70.10
63445;DHT22;49573;47.682;9.170;2024-02-28T09:56:38;8.70;70.40
63445;DHT22;49573;47.682;9.170;2024-02-28T09:59:24;8.70;70.70
63445;DHT22;49573;47.682;9.170;2024-02-28T10:02:12;8.80;70.40
63445;DHT22;49573;47.682;9.170;2024-02-28T10:04:59;9.00;70.60
63445;DHT22;49573;47.682;9.170;2024-02-28T10:07:46;9.10;70.30
63445;DHT22;49573;47.682;9.170;2024-02-28T10:10:36;9.00;69.40
63445;DHT22;49573;47.682;9.170;2024-02-28T10:13:23;9.00;69.60
63445;DHT22;49573;47.682;9.170;2024-02-28T10:16:09;9.10;69.90
63445;DHT22;49573;47.682;9.170;2024-02-28T10:18:55;9.10;69.30
63445;DHT22;49573;47.682;9.170;2024-02-28T10:21:42;9.00;69.40
63445;DHT22;49573;47.682;9.170;2024-02-28T10:24:28;9.10;69.40
63445;DHT22;49573;47.682;9.170;2024-02-28T10:27:17;9.00;69.10
63445;DHT22;49573;47.682;9.170;2024-02-28T10:30:06;9.10;69.70
63445;DHT22;49573;47.682;9.170;2024-02-28T10:32:53;8.80;69.50
63445;DHT22;49573;47.682;9.170;2024-02-28T10:35:39;8.90;69.80
63445;DHT22;49573;47.682;9.170;2024-02-28T10:38:26;9.00;69.70
63445;DHT22;49573;47.682;9.170;2024-02-28T10:41:13;9.00;69.10
63445;DHT22;49573;47.682;9.170;2024-02-28T10:44:01;9.10;69.20
63445;DHT22;49573;47.682;9.170;2024-02-28T10:46:49;9.20;68.60
63445;DHT22;49573;47.682;9.170;2024-02-28T10:49:35;9.20;68.80
63445;DHT22;49573;47.682;9.170;2024-02-28T10:52:22;9.30;69.20
63445;DHT22;49573;47.682;9.170;2024-02-28T10:55:09;9.50;68.30
63445;DHT22;49573;47.682;9.170;2024-02-28T10:58:00;9.50;68.30
63445;DHT22;49573;47.682;9.170;2024-02-28T11:00:49;9.50;68.40
63445;DHT22;49573;47.682;9.170;2024-02-28T11:03:35;9.50;68.40
63445;DHT22;49573;47.682;9.170;2024-02-28T11:06:22;9.60;68.20
63445;DHT22;49573;47.682;9.170;2024-02-28T11:09:09;9.60;68.20
63445;DHT22;49573;47.682;9.170;2024-02-28T11:11:57;9.50;68.50
63445;DHT22;49573;47.682;9.170;2024-02-28T11:14:44;9.60;68.30
63445;DHT22;49573;47.682;9.170;2024-02-28T11:17:31;9.40;67.80
63445;DHT22;49573;47.682;9.170;2024-02-28T11:20:18;9.40;68.40
63445;DHT22;49573;47.682;9.170;2024-02-28T11:23:06;9.60;68.10
63445;DHT22;49573;47.682;9.170;2024-02-28T11:25:52;9.70;68.00
63445;DHT22;49573;47.682;9.170;2024-02-28T11:28:39;9.90;67.80
63445;DHT22;49573;47.682;9.170;2024-02-28T11:31:25;9.80;68.00
63445;DHT22;49573;47.682;9.170;2024-02-28T11:34:13;10.10;67.40
63445;DHT22;49573;47.682;9.170;2024-02-28T11:36:59;10.20;67.40
63445;DHT22;49573;47.682;9.170;2024-02-28T11:39:46;10.30;67.50
63445;DHT22;49573;47.682;9.170;2024-02-28T11:42:34;10.20;66.70
63445;DHT22;49573;47.682;9.170;2024-02-28T11:45:24;10.30;67.50
63445;DHT22;49573;47.682;9.170;2024-02-28T11:48:13;10.60;66.70
63445;DHT22;49573;47.682;9.170;2024-02-28T11:51:01;10.70;66.40
63445;DHT22;49573;47.682;9.170;2024-02-28T11:53:47;10.80;67.00
63445;DHT22;49573;47.682;9.170;2024-02-28T11:56:33;10.90;66.40
63445;DHT22;49573;47.682;9.170;2024-02-28T11:59:19;11.00;66.40
63445;DHT22;49573;47.682;9.170;2024-02-28T12:01:51;11.10;65.50
63445;DHT22;49573;47.682;9.170;2024-02-28T12:04:38;11.10;65.10
63445;DHT22;49573;47.682;9.170;2024-02-28T12:07:25;11.20;65.60
63445;DHT22;49573;47.682;9.170;2024-02-28T12:10:11;11.30;64.60
63445;DHT22;49573;47.682;9.170;2024-02-28T12:12:58;11.30;65.20
63445;DHT22;49573;47.682;9.170;2024-02-28T12:15:45;11.30;64.80
63445;DHT22;49573;47.682;9.170;2024-02-28T12:18:31;11.20;64.60
63445;DHT22;49573;47.682;9.170;2024-02-28T12:21:17;11.20;65.30
63445;DHT22;49573;47.682;9.170;2024-02-28T12:24:07;11.20;65.20
63445;DHT22;49573;47.682;9.170;2024-02-28T12:26:54;11.10;65.10
63445;DHT22;49573;47.682;9.170;2024-02-28T12:29:40;11.10;65.30
63445;DHT22;49573;47.682;9.170;2024-02-28T12:32:26;11.10;65.20
63445;DHT22;49573;47.682;9.170;2024-02-28T12:35:12;11.10;65.60
63445;DHT22;49573;47.682;9.170;2024-02-28T12:37:58;10.90;65.70
63445;DHT22;49573;47.682;9.170;2024-02-28T12:40:46;10.90;65.20
63445;DHT22;49573;47.682;9.170;2024-02-28T12:43:32;11.00;65.70
63445;DHT22;49573;47.682;9.170;2024-02-28T12:46:18;11.00;65.70
63445;DHT22;49573;47.682;9.170;2024-02-28T12:49:04;11.00;65.90
63445;DHT22;49573;47.682;9.170;2024-02-28T12:51:51;11.00;65.50
63445;DHT22;49573;47.682;9.170;2024-02-28T12:54:37;11.00;65.80
63445;DHT22;49573;47.682;9.170;2024-02-28T12:57:25;11.00;66.00
63445;DHT22;49573;47.682;9.170;2024-02-28T13:00:12;11.00;66.00
63445;DHT22;49573;47.682;9.170;2024-02-28T13:02:59;11.00;65.70
63445;DHT22;49573;47.682;9.170;2024-02-28T13:05:45;11.00;65.60
63445;DHT22;49573;47.682;9.170;2024-02-28T13:08:31;10.90;65.70
63445;DHT22;49573;47.682;9.170;2024-02-28T13:11:18;10.90;65.90
63445;DHT22;49573;47.682;9.170;2024-02-28T13:14:06;10.90;66.20
63445;DHT22;49573;47.682;9.170;2024-02-28T13:16:54;10.90;66.30
63445;DHT22;49573;47.682;9.170;2024-02-28T13:19:40;10.80;65.80
63445;DHT22;49573;47.682;9.170;2024-02-28T13:22:27;10.80;66.50
63445;DHT22;49573;47.682;9.170;2024-02-28T13:25:13;10.80;66.20
63445;DHT22;49573;47.682;9.170;2024-02-28T13:28:00;10.80;66.10
63445;DHT22;49573;47.682;9.170;2024-02-28T13:30:47;10.80;66.20
63445;DHT22;49573;47.682;9.170;2024-02-28T13:33:34;10.80;66.40
63445;DHT22;49573;47.682;9.170;2024-02-28T13:36:22;10.80;66.30
63445;DHT22;49573;47.682;9.170;2024-02-28T13:39:09;10.80;66.60
63445;DHT22;49573;47.682;9.170;2024-02-28T13:41:55;10.80;66.30
63445;DHT22;49573;47.682;9.170;2024-02-28T13:44:41;10.80;66.70
63445;DHT22;49573;47.682;9.170;2024-02-28T13:47:28;10.90;66.30
63445;DHT22;49573;47.682;9.170;2024-02-28T13:50:15;10.90;66.40
63445;DHT22;49573;47.682;9.170;2024-02-28T13:53:01;11.00;66.80
63445;DHT22;49573;47.682;9.170;2024-02-28T13:55:47;11.00;66.10
63445;DHT22;49573;47.682;9.170;2024-02-28T13:58:33;11.00;66.00
63445;DHT22;49573;47.682;9.170;2024-02-28T14:01:19;11.00;66.00
63445;DHT22;49573;47.682;9.170;2024-02-28T14:04:06;11.10;66.10
63445;DHT22;49573;47.682;9.170;2024-02-28T14:06:53;11.20;66.40
63445;DHT22;49573;47.682;9.170;2024-02-28T14:09:39;11.20;66.00
63445;DHT22;49573;47.682;9.170;2024-02-28T14:12:25;11.40;66.30
63445;DHT22;49573;47.682;9.170;2024-02-28T14:15:11;11.60;66.30
63445;DHT22;49573;47.682;9.170;2024-02-28T14:17:36;11.60;65.90
63445;DHT22;49573;47.682;9.170;2024-02-28T14:20:24;11.50;65.00
63445;DHT22;49573;47.682;9.170;2024-02-28T14:23:10;11.50;65.00
63445;DHT22;49573;47.682;9.170;2024-02-28T14:25:56;11.50;64.80
63445;DHT22;49573;47.682;9.170;2024-02-28T14:28:43;11.50;64.60
63445;DHT22;49573;47.682;9.170;2024-02-28T14:31:29;11.50;64.90
63445;DHT22;49573;47.682;9.170;2024-02-28T14:34:15;11.40;65.10
63445;DHT22;49573;47.682;9.170;2024-02-28T14:37:02;11.30;65.00
63445;DHT22;49573;47.682;9.170;2024-02-28T14:39:50;11.40;65.00
63445;DHT22;49573;47.682;9.170;2024-02-28T14:42:36;11.40;65.40
63445;DHT22;49573;47.682;9.170;2024-02-28T14:45:22;11.40;65.60
63445;DHT22;49573;47.682;9.170;2024-02-28T14:48:10;11.50;65.20
63445;DHT22;49573;47.682;9.170;2024-02-28T14:50:56;11.40;65.40
63445;DHT22;49573;47.682;9.170;2024-02-28T14:53:43;11.40;65.50
63445;DHT22;49573;47.682;9.170;2024-02-28T14:56:29;11.30;65.50
63445;DHT22;49573;47.682;9.170;2024-02-28T14:59:15;11.30;65.50
63445;DHT22;49573;47.682;9.170;2024-02-28T15:02:01;11.30;65.80
63445;DHT22;49573;47.682;9.170;2024-02-28T15:04:47;11.30;66.00
63445;DHT22;49573;47.682;9.170;2024-02-28T15:07:35;11.20;65.90
63445;DHT22;49573;47.682;9.170;2024-02-28T15:10:23;11.20;66.20
63445;DHT22;49573;47.682;9.170;2024-02-28T15:13:09;11.30;66.70
63445;DHT22;49573;47.682;9.170;2024-02-28T15:15:55;11.20;66.30
63445;DHT22;49573;47.682;9.170;2024-02-28T15:18:41;11.20;66.60
63445;DHT22;49573;47.682;9.170;2024-02-28T15:21:27;11.20;66.40
63445;DHT22;49573;47.682;9.170;2024-02-28T15:24:13;11.20;66.50
63445;DHT22;49573;47.682;9.170;2024-02-28T15:27:01;11.20;66.10
63445;DHT22;49573;47.682;9.170;2024-02-28T15:29:47;11.20;66.40
63445;DHT22;49573;47.682;9.170;2024-02-28T15:32:33;11.10;66.60
63445;DHT22;49573;47.682;9.170;2024-02-28T15:35:20;11.10;66.80
63445;DHT22;49573;47.682;9.170;2024-02-28T15:38:08;11.00;66.90
63445;DHT22;49573;47.682;9.170;2024-02-28T15:40:54;11.00;66.90
63445;DHT22;49573;47.682;9.170;2024-02-28T15:43:41;10.90;67.10
63445;DHT22;49573;47.682;9.170;2024-02-28T15:46:27;10.90;67.20
63445;DHT22;49573;47.682;9.170;2024-02-28T15:49:13;10.80;67.60
63445;DHT22;49573;47.682;9.170;2024-02-28T15:51:59;10.80;67.90
63445;DHT22;49573;47.682;9.170;2024-02-28T15:54:45;10.80;68.00
63445;DHT22;49573;47.682;9.170;2024-02-28T15:57:32;10.80;67.80
63445;DHT22;49573;47.682;9.170;2024-02-28T16:00:19;10.80;67.90
63445;DHT22;49573;47.682;9.170;2024-02-28T16:03:05;10.70;68.00
63445;DHT22;49573;47.682;9.170;2024-02-28T16:05:51;10.70;68.10
63445;DHT22;49573;47.682;9.170;2024-02-28T16:08:40;10.60;68.20
63445;DHT22;49573;47.682;9.170;2024-02-28T16:11:27;10.60;68.30
63445;DHT22;49573;47.682;9.170;2024-02-28T16:14:13;10.50;68.60
63445;DHT22;49573;47.682;9.170;2024-02-28T16:17:01;10.50;68.30
63445;DHT22;49573;47.682;9.170;2024-02-28T16:19:47;10.40;68.60
63445;DHT22;49573;47.682;9.170;2024-02-28T16:22:33;10.40;69.00
63445;DHT22;49573;47.682;9.170;2024-02-28T16:25:19;10.30;69.40
63445;DHT22;49573;47.682;9.170;2024-02-28T16:28:07;10.30;69.30
63445;DHT22;49573;47.682;9.170;2024-02-28T16:30:53;10.30;69.20
63445;DHT22;49573;47.682;9.170;2024-02-28T16:33:40;10.20;69.10
63445;DHT22;49573;47.682;9.170;2024-02-28T16:36:26;10.20;69.50
63445;DHT22;49573;47.682;9.170;2024-02-28T16:39:13;10.20;69.10
63445;DHT22;49573;47.682;9.170;2024-02-28T16:41:59;10.20;69.40
63445;DHT22;49573;47.682;9.170;2024-02-28T16:44:45;10.10;69.50
63445;DHT22;49573;47.682;9.170;2024-02-28T16:47:31;10.10;69.60
63445;DHT22;49573;47.682;9.170;2024-02-28T16:50:19;10.00;69.80
63445;DHT22;49573;47.682;9.170;2024-02-28T16:53:05;10.00;69.90
63445;DHT22;49573;47.682;9.170;2024-02-28T16:55:51;10.00;70.10
63445;DHT22;49573;47.682;9.170;2024-02-28T16:58:37;10.00;70.20
63445;DHT22;49573;47.682;9.170;2024-02-28T17:01:25;9.90;70.30
63445;DHT22;49573;47.682;9.170;2024-02-28T17:04:11;9.80;70.50
63445;DHT22;49573;47.682;9.170;2024-02-28T17:07:00;9.80;70.30
63445;DHT22;49573;47.682;9.170;2024-02-28T17:09:47;9.80;70.50
63445;DHT22;49573;47.682;9.170;2024-02-28T17:12:33;9.80;70.60
63445;DHT22;49573;47.682;9.170;2024-02-28T17:15:19;9.70;71.20
63445;DHT22;49573;47.682;9.170;2024-02-28T17:18:06;9.70;70.90
63445;DHT22;49573;47.682;9.170;2024-02-28T17:20:53;9.70;71.20
63445;DHT22;49573;47.682;9.170;2024-02-28T17:23:40;9.70;71.30
63445;DHT22;49573;47.682;9.170;2024-02-28T17:26:26;9.60;71.40
63445;DHT22;49573;47.682;9.170;2024-02-28T17:29:13;9.60;71.40
63445;DHT22;49573;47.682;9.170;2024-02-28T17:31:59;9.60;71.90
63445;DHT22;49573;47.682;9.170;2024-02-28T17:34:45;9.50;71.90
63445;DHT22;49573;47.682;9.170;2024-02-28T17:37:37;9.50;72.00
63445;DHT22;49573;47.682;9.170;2024-02-28T17:40:25;9.50;71.90
63445;DHT22;49573;47.682;9.170;2024-02-28T17:43:11;9.50;72.10
63445;DHT22;49573;47.682;9.170;2024-02-28T17:45:57;9.40;72.10